Time;durP1;ratioP1;P1;durP2;ratioP2;P2;SDS_P1;SDS_P2;PMS_P1;PMS_P2;Temp;Humidity;BMP_temperature;BMP_pressure;BME280_temperature;BME280_humidity;BME280_pressure;Samples;Min_cycle;Max_cycle;Signal;HPM_P1;HPM_P2
2023/11/13 00:01:29;;;;;;;21.67;11.53;;;;;;;2.43;100.00;100186.83;1459617;89;22160;-84
2023/11/13 00:03:55;;;;;;;18.73;9.47;;;;;;;2.42;100.00;100194.31;1461201;89;23251;-83
2023/11/13 00:06:21;;;;;;;15.50;9.43;;;;;;;2.41;100.00;100191.30;1466319;89;22213;-79
2023/11/13 00:08:47;;;;;;;15.50;8.37;;;;;;;2.37;100.00;100188.06;1459804;89;22751;-82
2023/11/13 00:11:14;;;;;;;18.40;10.63;;;;;;;2.35;100.00;100186.49;1449920;89;23094;-81
2023/11/13 00:13:40;;;;;;;16.90;10.07;;;;;;;2.36;100.00;100185.55;1452684;89;22252;-82
2023/11/13 00:16:07;;;;;;;10.83;7.97;;;;;;;2.37;100.00;100198.52;1457233;89;22205;-82
2023/11/13 00:18:33;;;;;;;9.73;7.30;;;;;;;2.38;100.00;100193.65;1458233;89;22193;-82
2023/11/13 00:20:59;;;;;;;13.60;7.90;;;;;;;2.41;100.00;100192.61;1451155;89;22119;-80
2023/11/13 00:23:27;;;;;;;12.60;8.37;;;;;;;2.39;100.00;100195.34;1456115;89;23701;-81
2023/11/13 00:25:54;;;;;;;14.47;8.77;;;;;;;2.36;100.00;100193.37;1452472;89;22196;-81
2023/11/13 00:28:20;;;;;;;12.63;8.67;;;;;;;2.30;100.00;100187.25;1445666;89;23100;-81
2023/11/13 00:30:47;;;;;;;11.37;7.60;;;;;;;2.24;100.00;100195.02;1461704;89;22226;-83
2023/11/13 00:33:13;;;;;;;12.73;9.03;;;;;;;2.20;100.00;100192.25;1459362;89;22723;-85
2023/11/13 00:35:41;;;;;;;11.67;8.00;;;;;;;2.17;100.00;100198.98;1454811;89;22181;-84
2023/11/13 00:38:07;;;;;;;8.93;6.60;;;;;;;2.15;100.00;100206.90;1460653;89;22340;-84
2023/11/13 00:40:34;;;;;;;12.87;7.63;;;;;;;2.15;100.00;100207.38;1455666;89;22295;-84
2023/11/13 00:43:01;;;;;;;46.03;28.47;;;;;;;2.14;100.00;100211.77;1456715;89;22210;-83
2023/11/13 00:45:28;;;;;;;20.17;12.67;;;;;;;2.13;100.00;100221.84;1461807;89;22226;-83
2023/11/13 00:47:54;;;;;;;27.83;16.27;;;;;;;2.12;100.00;100217.55;1460088;89;22170;-86
2023/11/13 00:50:21;;;;;;;31.53;20.80;;;;;;;2.12;100.00;100218.84;1454957;89;23389;-85
2023/11/13 00:52:47;;;;;;;36.63;21.17;;;;;;;2.08;100.00;100213.47;1443235;89;22124;-84
2023/11/13 00:55:14;;;;;;;17.90;12.80;;;;;;;2.02;100.00;100211.25;1459793;89;22276;-85
2023/11/13 00:57:40;;;;;;;18.20;12.13;;;;;;;1.99;100.00;100219.28;1459546;89;22112;-84
2023/11/13 01:00:11;;;;;;;12.30;10.97;;;;;;;1.97;100.00;100216.75;1459590;89;23290;-84
2023/11/13 01:02:37;;;;;;;13.15;9.40;;;;;;;1.98;100.00;100230.64;1462300;89;22331;-85
2023/11/13 01:05:04;;;;;;;19.07;13.97;;;;;;;1.99;100.00;100223.20;1455358;89;21457;-84
2023/11/13 01:07:30;;;;;;;11.50;7.87;;;;;;;2.02;100.00;100225.14;1463459;89;22172;-84
2023/11/13 01:09:57;;;;;;;13.30;9.93;;;;;;;2.06;100.00;100221.86;1449077;89;23068;-84
2023/11/13 01:12:24;;;;;;;11.70;8.37;;;;;;;2.08;100.00;100217.86;1454465;89;22174;-85
2023/11/13 01:14:51;;;;;;;12.90;8.13;;;;;;;2.07;100.00;100218.30;1462423;89;22196;-85
2023/11/13 01:17:18;;;;;;;14.00;9.23;;;;;;;2.04;100.00;100217.19;1453282;89;22271;-84
2023/11/13 01:19:44;;;;;;;13.93;9.50;;;;;;;2.04;100.00;100217.19;1458464;89;22411;-81
2023/11/13 01:22:10;;;;;;;10.50;8.37;;;;;;;1.92;100.00;100202.33;1461040;89;22245;-82
2023/11/13 01:24:37;;;;;;;12.97;8.07;;;;;;;1.92;100.00;100202.33;1464065;89;23553;-81
2023/11/13 01:27:03;;;;;;;12.70;7.33;;;;;;;1.96;100.00;100205.12;1456144;89;22396;-81
2023/11/13 01:29:29;;;;;;;12.63;9.13;;;;;;;1.96;100.00;100205.12;1457805;89;22152;-81
2023/11/13 01:31:55;;;;;;;15.43;7.70;;;;;;;1.99;100.00;100201.02;1455327;89;22137;-80
2023/11/13 01:34:21;;;;;;;15.37;8.10;;;;;;;2.06;100.00;100215.80;1459129;89;22264;-79
2023/11/13 01:36:47;;;;;;;11.87;7.97;;;;;;;2.07;100.00;100210.94;1451282;89;21493;-79
2023/11/13 01:39:13;;;;;;;11.70;8.00;;;;;;;2.05;100.00;100220.66;1460929;89;21888;-80
2023/11/13 01:41:42;;;;;;;12.83;8.80;;;;;;;1.98;100.00;100226.25;1448186;89;22263;-80
2023/11/13 01:44:09;;;;;;;9.97;7.97;;;;;;;1.84;100.00;100209.80;1452356;88;23043;-84
2023/11/13 01:46:36;;;;;;;11.97;7.93;;;;;;;1.84;100.00;100209.80;1445211;89;22487;-83
2023/11/13 01:49:04;;;;;;;24.67;8.23;;;;;;;1.82;100.00;100227.34;1461842;89;22248;-80
2023/11/13 01:51:31;;;;;;;16.63;6.97;;;;;;;1.82;100.00;100227.34;1424110;89;22351;-83
2023/11/13 01:53:57;;;;;;;10.80;6.80;;;;;;;1.82;100.00;100227.34;1447925;89;21969;-80
2023/11/13 01:56:29;;;;;;;11.93;7.57;;;;;;;1.82;100.00;100233.40;1455606;89;23124;-83
2023/11/13 01:58:57;;;;;;;13.27;9.00;;;;;;;1.72;100.00;100225.28;1452174;89;22218;-81
2023/11/13 02:01:28;;;;;;;14.17;9.10;;;;;;;1.72;100.00;100225.28;1454776;88;23024;-80
2023/11/13 02:03:54;;;;;;;13.60;8.18;;;;;;;1.74;100.00;100224.73;1462459;89;22087;-81
2023/11/13 02:06:22;;;;;;;13.80;8.13;;;;;;;1.74;100.00;100228.65;1464338;89;22583;-80
2023/11/13 02:08:49;;;;;;;12.70;9.27;;;;;;;1.74;100.00;100225.20;1461137;89;21851;-80
2023/11/13 02:11:17;;;;;;;12.27;8.50;;;;;;;1.78;100.00;100237.98;1461351;88;22105;-84
2023/11/13 02:13:48;;;;;;;14.83;9.20;;;;;;;1.78;100.00;100237.98;1446426;89;22941;-85
2023/11/13 02:16:14;;;;;;;12.00;8.25;;;;;;;1.75;100.00;100229.01;1465780;88;23165;-84
2023/11/13 02:18:40;;;;;;;14.83;9.13;;;;;;;1.78;100.00;100237.98;1453128;89;21611;-85
2023/11/13 02:21:07;;;;;;;13.27;8.70;;;;;;;1.73;100.00;100254.38;1458826;89;21970;-83
2023/11/13 02:23:33;;;;;;;14.63;9.30;;;;;;;1.64;100.00;100252.34;1459725;88;22198;-82
2023/11/13 02:26:04;;;;;;;16.07;10.10;;;;;;;1.64;100.00;100252.34;1462811;89;22073;-81
2023/11/13 02:28:30;;;;;;;12.70;9.08;;;;;;;1.66;100.00;100255.67;1462730;89;22002;-82
2023/11/13 02:30:56;;;;;;;15.90;10.47;;;;;;;1.61;100.00;100253.81;1464916;88;21699;-82
2023/11/13 02:33:23;;;;;;;13.90;8.83;;;;;;;1.57;100.00;100261.00;1463049;89;22990;-81
2023/11/13 02:35:49;;;;;;;20.30;10.73;;;;;;;1.57;100.00;100261.00;1458478;89;23530;-81
2023/11/13 02:38:15;;;;;;;25.10;12.47;;;;;;;1.53;100.00;100263.44;1443956;89;21870;-84
2023/11/13 02:40:42;;;;;;;29.23;12.03;;;;;;;1.53;100.00;100262.60;1464700;89;22096;-83
2023/11/13 02:43:12;;;;;;;24.35;13.10;;;;;;;1.53;100.00;100262.60;1463289;89;21917;-84
2023/11/13 02:45:40;;;;;;;14.80;9.60;;;;;;;1.48;100.00;100255.52;1448081;89;22314;-81
2023/11/13 02:48:06;;;;;;;12.47;8.83;;;;;;;1.43;100.00;100253.17;1471057;88;22207;-84
2023/11/13 02:50:33;;;;;;;13.43;9.10;;;;;;;1.39;100.00;100252.17;1462964;89;21905;-81
2023/11/13 02:52:59;;;;;;;12.83;7.97;;;;;;;1.35;100.00;100251.05;1458687;89;22903;-83
2023/11/13 02:55:26;;;;;;;11.87;8.50;;;;;;;1.32;100.00;100248.64;1459641;89;21874;-84
2023/11/13 02:57:53;;;;;;;15.70;10.07;;;;;;;1.25;100.00;100243.87;1458635;89;21870;-83
2023/11/13 03:00:21;;;;;;;12.67;8.27;;;;;;;1.27;100.00;100254.59;1464932;89;22008;-83
2023/11/13 03:02:47;;;;;;;18.37;9.60;;;;;;;1.28;100.00;100260.16;1464632;88;21920;-84
2023/11/13 03:05:14;;;;;;;13.43;9.43;;;;;;;1.27;100.00;100257.20;1467240;88;22853;-84
2023/11/13 03:07:41;;;;;;;14.23;9.47;;;;;;;1.25;100.00;100256.44;1466008;88;21772;-84
2023/11/13 03:10:08;;;;;;;13.30;8.63;;;;;;;1.24;100.00;100256.55;1465030;89;21811;-82
2023/11/13 03:12:34;;;;;;;15.83;10.00;;;;;;;1.24;100.00;100256.55;1450161;89;22785;-82
2023/11/13 03:15:00;;;;;;;14.70;9.50;;;;;;;1.25;100.00;100258.22;1469236;89;21883;-83
2023/11/13 03:17:27;;;;;;;13.37;8.60;;;;;;;1.28;100.00;100267.98;1458082;89;21954;-83
2023/11/13 03:19:54;;;;;;;15.27;9.07;;;;;;;1.28;100.00;100267.98;1466110;88;21920;-83
2023/11/13 03:22:20;;;;;;;15.67;9.57;;;;;;;1.31;100.00;100266.97;1462792;89;22780;-84
2023/11/13 03:24:46;;;;;;;15.27;10.03;;;;;;;1.35;100.00;100269.75;1464604;88;21946;-82
2023/11/13 03:27:12;;;;;;;16.33;8.90;;;;;;;1.39;100.00;100269.12;1463907;89;22168;-81
2023/11/13 03:29:39;;;;;;;15.53;10.20;;;;;;;1.39;100.00;100269.12;1455571;89;21735;-83
2023/11/13 03:32:06;;;;;;;16.60;10.20;;;;;;;1.47;100.00;100279.94;1468837;88;21956;-83
2023/11/13 03:34:32;;;;;;;14.90;9.17;;;;;;;1.47;100.00;100278.63;1460084;89;21843;-83
2023/11/13 03:36:58;;;;;;;17.50;10.40;;;;;;;1.41;100.00;100275.92;1467510;89;21888;-83
2023/11/13 03:39:27;;;;;;;19.67;10.83;;;;;;;1.46;100.00;100282.15;1467251;89;22720;-83
2023/11/13 03:41:53;;;;;;;16.63;10.07;;;;;;;1.47;100.00;100279.94;1458814;89;22002;-81
2023/11/13 03:44:19;;;;;;;13.80;9.00;;;;;;;1.47;100.00;100279.94;1457523;89;22111;-81
2023/11/13 03:46:45;;;;;;;12.80;8.53;;;;;;;1.47;100.00;100270.34;1460700;89;22044;-80
2023/11/13 03:49:12;;;;;;;16.33;9.67;;;;;;;1.52;100.00;100272.17;1464926;89;21911;-81
2023/11/13 03:51:38;;;;;;;14.83;10.17;;;;;;;1.52;100.00;100263.52;1467469;89;21851;-82
2023/11/13 03:54:05;;;;;;;14.30;9.10;;;;;;;1.64;100.00;100269.75;1453125;89;22116;-82
2023/11/13 03:56:31;;;;;;;14.43;9.60;;;;;;;1.71;100.00;100277.58;1457210;89;21939;-82
2023/11/13 03:58:57;;;;;;;13.87;9.13;;;;;;;1.71;100.00;100277.58;1464289;89;22308;-81
2023/11/13 04:01:23;;;;;;;11.63;8.43;;;;;;;1.71;100.00;100300.59;1458003;89;22197;-80
2023/11/13 04:03:49;;;;;;;15.00;10.23;;;;;;;1.71;100.00;100300.59;1461355;89;22811;-81
2023/11/13 04:06:17;;;;;;;14.87;8.63;;;;;;;1.66;100.00;100301.33;1453419;89;22604;-81
2023/11/13 04:08:43;;;;;;;14.27;9.07;;;;;;;1.66;100.00;100301.33;1452432;89;21947;-81
2023/11/13 04:11:09;;;;;;;14.57;9.00;;;;;;;1.68;100.00;100304.70;1451011;89;21962;-81
2023/11/13 04:13:36;;;;;;;14.03;8.30;;;;;;;1.69;100.00;100297.23;1459944;89;22858;-82
2023/11/13 04:16:04;;;;;;;15.27;8.77;;;;;;;1.71;100.00;100299.29;1462949;89;22300;-81
2023/11/13 04:18:33;;;;;;;11.17;8.33;;;;;;;1.75;100.00;100294.24;1458974;89;22924;-81
2023/11/13 04:21:00;;;;;;;12.40;8.67;;;;;;;1.78;100.00;100288.00;1466450;89;21947;-82
2023/11/13 04:23:27;;;;;;;9.73;6.73;;;;;;;1.86;100.00;100292.28;1461389;89;21894;-80
2023/11/13 04:25:53;;;;;;;13.90;8.50;;;;;;;1.89;100.00;100289.95;1453820;89;23197;-81
2023/11/13 04:28:19;;;;;;;12.67;8.73;;;;;;;1.89;100.00;100289.95;1459242;89;22233;-81
2023/11/13 04:30:49;;;;;;;20.03;9.00;;;;;;;1.93;100.00;100291.45;1462348;89;22181;-81
2023/11/13 04:33:15;;;;;;;12.93;8.37;;;;;;;1.95;100.00;100288.26;1445488;89;22479;-80
2023/11/13 04:35:41;;;;;;;11.60;7.83;;;;;;;1.95;100.00;100288.26;1458562;89;21968;-81
2023/11/13 04:38:07;;;;;;;13.93;9.13;;;;;;;1.96;100.00;100295.17;1459802;89;22859;-81
2023/11/13 04:40:33;;;;;;;15.00;7.47;;;;;;;1.96;100.00;100292.09;1467986;89;22116;-81
2023/11/13 04:43:01;;;;;;;12.57;8.43;;;;;;;2.00;100.00;100291.42;1466763;89;22285;-81
2023/11/13 04:45:29;;;;;;;13.50;8.83;;;;;;;2.00;100.00;100291.42;1467915;89;21999;-80
2023/11/13 04:47:55;;;;;;;14.53;8.13;;;;;;;2.11;100.00;100286.38;1458255;89;22772;-80
2023/11/13 04:50:22;;;;;;;12.27;9.30;;;;;;;2.11;100.00;100283.01;1450283;89;22329;-81
2023/11/13 04:52:49;;;;;;;11.57;8.40;;;;;;;2.16;100.00;100283.01;1459276;89;22167;-80
2023/11/13 04:55:16;;;;;;;13.23;8.30;;;;;;;2.19;100.00;100285.42;1452146;89;22189;-80
2023/11/13 04:57:42;;;;;;;13.80;9.67;;;;;;;2.24;100.00;100276.84;1457994;89;22166;-81
2023/11/13 05:00:10;;;;;;;12.23;8.50;;;;;;;2.29;100.00;100280.91;1463731;89;22130;-84
2023/11/13 05:02:38;;;;;;;17.47;10.27;;;;;;;2.30;100.00;100275.58;1437036;89;22159;-83
2023/11/13 05:05:07;;;;;;;17.80;9.67;;;;;;;2.33;100.00;100281.94;1469906;89;22162;-83
2023/11/13 05:07:36;;;;;;;14.33;8.27;;;;;;;2.36;100.00;100284.80;1449692;89;22116;-84
2023/11/13 05:10:03;;;;;;;12.40;8.40;;;;;;;2.36;100.00;100283.48;1467571;89;22176;-82
2023/11/13 05:12:31;;;;;;;19.87;9.20;;;;;;;2.34;100.00;100273.63;1461599;88;22049;-83
2023/11/13 05:14:57;;;;;;;14.90;8.50;;;;;;;2.33;100.00;100281.08;1449778;89;22080;-84
2023/11/13 05:17:24;;;;;;;19.77;8.03;;;;;;;2.31;100.00;100280.36;1452279;89;22182;-82
2023/11/13 05:19:50;;;;;;;13.10;8.10;;;;;;;2.31;100.00;100278.58;1460002;89;22297;-83
2023/11/13 05:22:16;;;;;;;11.87;7.43;;;;;;;2.35;100.00;100277.91;1459790;89;22189;-83
2023/11/13 05:24:42;;;;;;;11.70;6.60;;;;;;;2.39;100.00;100285.93;1453257;89;22311;-82
2023/11/13 05:27:08;;;;;;;14.37;7.43;;;;;;;2.40;100.00;100280.59;1455127;89;23123;-84
2023/11/13 05:29:34;;;;;;;12.77;7.90;;;;;;;2.44;100.00;100278.61;1457640;89;22180;-86
2023/11/13 05:32:01;;;;;;;15.80;8.30;;;;;;;2.47;100.00;100278.41;1445694;89;22360;-84
2023/11/13 05:34:27;;;;;;;15.27;9.00;;;;;;;2.44;100.00;100270.30;1463024;88;23513;-82
2023/11/13 05:36:53;;;;;;;12.00;8.00;;;;;;;2.43;100.00;100275.64;1445049;89;22175;-81
2023/11/13 05:39:21;;;;;;;19.87;9.37;;;;;;;2.41;100.00;100280.95;1458271;89;22078;-83
2023/11/13 05:41:47;;;;;;;20.47;10.63;;;;;;;2.39;100.00;100280.23;1457261;89;22294;-82
2023/11/13 05:44:13;;;;;;;17.43;10.43;;;;;;;2.40;100.00;100283.67;1464589;89;22207;-83
2023/11/13 05:46:40;;;;;;;14.60;10.00;;;;;;;2.40;100.00;100292.82;1460015;89;23137;-85
2023/11/13 05:49:06;;;;;;;14.40;9.77;;;;;;;2.39;100.00;100295.07;1460262;89;22139;-84
2023/11/13 05:51:32;;;;;;;14.30;8.67;;;;;;;2.37;100.00;100294.33;1456705;89;22124;-86
2023/11/13 05:53:59;;;;;;;15.27;8.47;;;;;;;2.35;100.00;100300.11;1463384;89;22278;-84
2023/11/13 05:56:25;;;;;;;14.30;9.87;;;;;;;2.34;100.00;100298.44;1460608;89;22183;-84
2023/11/13 05:58:51;;;;;;;21.00;10.63;;;;;;;2.34;100.00;100304.50;1458453;89;22130;-83
2023/11/13 06:01:19;;;;;;;17.33;11.93;;;;;;;2.34;100.00;100296.66;1457295;89;22279;-84
2023/11/13 06:03:45;;;;;;;41.40;20.40;;;;;;;2.36;100.00;100291.33;1456767;89;22180;-85
2023/11/13 06:06:16;;;;;;;54.07;23.93;;;;;;;2.36;100.00;100295.23;1458567;89;22180;-85
2023/11/13 06:08:46;;;;;;;68.80;27.70;;;;;;;2.37;100.00;100304.77;1456617;89;22907;-85
2023/11/13 06:11:13;;;;;;;75.17;33.23;;;;;;;2.39;100.00;100308.13;1459806;89;21412;-85
2023/11/13 06:13:39;;;;;;;71.10;32.63;;;;;;;2.42;100.00;100300.93;1454674;89;22192;-85
2023/11/13 06:16:07;;;;;;;76.23;33.80;;;;;;;2.47;100.00;100304.09;1451325;89;22815;-85
2023/11/13 06:18:49;;;;;;;66.30;28.43;;;;;;;2.56;100.00;100314.86;1452091;89;22149;-86
2023/11/13 06:21:18;;;;;;;58.50;27.70;;;;;;;2.62;100.00;100317.94;1463257;89;22203;-83
2023/11/13 06:23:44;;;;;;;55.67;26.97;;;;;;;2.62;100.00;100317.94;1460030;89;21600;-85
2023/11/13 06:26:13;;;;;;;53.87;24.00;;;;;;;2.66;100.00;100322.48;1456597;89;23069;-84
2023/11/13 06:28:40;;;;;;;54.13;26.20;;;;;;;2.68;100.00;100328.46;1458976;89;22166;-84
2023/11/13 06:31:10;;;;;;;49.13;25.83;;;;;;;2.70;100.00;100333.09;1459617;89;23150;-86
2023/11/13 06:33:38;;;;;;;40.80;21.73;;;;;;;2.71;100.00;100334.79;1454693;89;23195;-86
2023/11/13 06:36:09;;;;;;;34.30;18.97;;;;;;;2.74;100.00;100342.43;1461729;89;22158;-83
2023/11/13 06:38:36;;;;;;;32.10;17.75;;;;;;;2.78;100.00;100340.45;1466269;89;22285;-83
2023/11/13 06:41:03;;;;;;;19.97;13.37;;;;;;;2.82;100.00;100343.22;1448813;89;21419;-82
2023/11/13 06:43:31;;;;;;;23.30;13.33;;;;;;;2.89;100.00;100336.67;1441271;89;23059;-82
2023/11/13 06:46:01;;;;;;;23.63;13.63;;;;;;;3.01;100.00;100345.00;1449475;88;21471;-81
2023/11/13 06:48:29;;;;;;;19.32;12.15;;;;;;;3.01;100.00;100345.00;1454905;89;21449;-82
2023/11/13 06:50:55;;;;;;;16.60;10.13;;;;;;;3.09;100.00;100345.81;1460853;89;21515;-82
2023/11/13 06:53:21;;;;;;;20.47;12.77;;;;;;;3.16;100.00;100346.63;1457254;89;21389;-81
2023/11/13 06:55:48;;;;;;;19.07;12.93;;;;;;;3.23;100.00;100350.13;1458918;89;22098;-84
2023/11/13 06:58:15;;;;;;;16.20;11.20;;;;;;;3.27;100.00;100351.59;1460458;89;21589;-80
2023/11/13 07:00:41;;;;;;;22.27;11.20;;;;;;;3.31;100.00;100346.51;1477280;88;22291;-82
2023/11/13 07:03:07;;;;;;;17.57;11.77;;;;;;;3.34;100.00;100351.09;1457506;89;21471;-83
2023/11/13 07:05:34;;;;;;;14.93;11.17;;;;;;;3.38;100.00;100353.85;1468803;89;21662;-81
2023/11/13 07:08:00;;;;;;;16.57;10.10;;;;;;;3.43;100.00;100352.24;1462074;89;21470;-82
2023/11/13 07:10:33;;;;;;;21.07;12.70;;;;;;;3.48;100.00;100351.91;1465877;89;22262;-83
2023/11/13 07:12:57;;;;;;;;;;;;;;;3.55;100.00;100362.35;1453247;89;22380;-83
2023/11/13 07:15:23;;;;;;;29.33;18.17;;;;;;;3.59;100.00;100362.02;1463887;89;20417;-83
2023/11/13 07:17:49;;;;;;;29.23;17.27;;;;;;;3.64;100.00;100356.96;1455191;89;21531;-85
2023/11/13 07:20:18;;;;;;;22.10;14.00;;;;;;;3.70;100.00;100363.08;1453062;89;21551;-85
2023/11/13 07:22:45;;;;;;;23.00;14.23;;;;;;;3.76;100.00;100360.03;1462406;89;21544;-83
2023/11/13 07:25:11;;;;;;;30.07;15.87;;;;;;;3.81;100.00;100358.78;1466142;89;22394;-84
2023/11/13 07:27:38;;;;;;;25.77;15.13;;;;;;;3.88;100.00;100355.73;1469378;89;21574;-82
2023/11/13 07:30:07;;;;;;;25.77;16.07;;;;;;;3.93;100.00;100361.02;1456232;88;21404;-84
2023/11/13 07:32:33;;;;;;;22.77;13.20;;;;;;;3.96;100.00;100359.48;1444020;89;21539;-84
2023/11/13 07:34:59;;;;;;;18.63;10.10;;;;;;;3.99;100.00;100354.04;1464088;89;21486;-83
2023/11/13 07:37:25;;;;;;;16.73;10.00;;;;;;;4.01;100.00;100352.16;1458411;89;21733;-83
2023/11/13 07:39:52;;;;;;;16.60;9.13;;;;;;;4.05;100.00;100358.84;1458833;89;21484;-83
2023/11/13 07:42:18;;;;;;;12.40;8.73;;;;;;;4.09;100.00;100358.18;1459904;88;21715;-82
2023/11/13 07:44:51;;;;;;;15.27;8.23;;;;;;;4.16;100.00;100362.50;1451725;90;22476;-85
2023/11/13 07:47:19;;;;;;;16.47;9.83;;;;;;;4.22;100.00;100363.38;1452017;90;21500;-83
2023/11/13 07:49:45;;;;;;;17.00;10.63;;;;;;;4.29;100.00;100359.39;1378376;90;21470;-84
2023/11/13 07:52:13;;;;;;;15.53;10.57;;;;;;;4.37;100.00;100353.59;1385176;90;21368;-83
2023/11/13 07:54:40;;;;;;;16.93;10.73;;;;;;;4.44;100.00;100351.73;1377725;89;21361;-83
2023/11/13 07:57:09;;;;;;;17.30;11.27;;;;;;;4.48;100.00;100345.31;1378511;89;21405;-84
2023/11/13 07:59:37;;;;;;;23.00;12.50;;;;;;;4.53;100.00;100340.59;1376064;90;22284;-81
2023/11/13 08:02:04;;;;;;;19.70;12.17;;;;;;;4.62;100.00;100345.63;1378263;89;21368;-80
2023/11/13 08:04:31;;;;;;;18.50;10.80;;;;;;;4.68;100.00;100340.42;1384987;90;21570;-81
2023/11/13 08:06:57;;;;;;;21.00;11.57;;;;;;;4.75;100.00;100345.12;1438405;90;21726;-80
2023/11/13 08:09:24;;;;;;;15.27;9.93;;;;;;;4.78;100.00;100345.37;1451113;89;21375;-84
2023/11/13 08:11:50;;;;;;;21.07;12.00;;;;;;;4.81;100.00;100345.63;1455773;90;21663;-83
2023/11/13 08:14:16;;;;;;;31.57;17.47;;;;;;;4.85;100.00;100353.13;1451449;90;21493;-82
2023/11/13 08:16:42;;;;;;;33.53;17.13;;;;;;;4.87;100.00;100344.69;1455498;90;22510;-84
2023/11/13 08:19:09;;;;;;;22.83;13.80;;;;;;;4.87;100.00;100339.44;1454719;90;22344;-80
2023/11/13 08:21:35;;;;;;;17.73;11.27;;;;;;;4.91;100.00;100343.50;1447229;90;21686;-82
2023/11/13 08:24:02;;;;;;;20.53;11.10;;;;;;;4.93;100.00;100349.47;1443676;90;21397;-81
2023/11/13 08:26:29;;;;;;;19.70;10.07;;;;;;;5.02;100.00;100343.19;1446874;90;21561;-82
2023/11/13 08:28:57;;;;;;;13.53;8.40;;;;;;;5.08;100.00;100348.81;1452650;90;21412;-81
2023/11/13 08:31:26;;;;;;;17.93;10.00;;;;;;;5.15;100.00;100347.42;1452733;90;21581;-81
2023/11/13 08:33:54;;;;;;;16.17;9.93;;;;;;;5.24;100.00;100342.44;1452444;90;21375;-83
2023/11/13 08:36:28;;;;;;;14.77;10.60;;;;;;;5.32;100.00;100340.91;1382645;90;21412;-82
2023/11/13 08:38:55;;;;;;;16.40;10.27;;;;;;;5.41;100.00;100344.63;1535455;89;21339;-80
2023/11/13 08:41:21;;;;;;;20.97;13.80;;;;;;;5.38;100.00;100336.50;1379049;89;21367;-82
2023/11/13 08:43:48;;;;;;;20.17;12.57;;;;;;;5.48;100.00;100348.92;1390058;89;22263;-81
2023/11/13 08:46:15;;;;;;;17.93;11.20;;;;;;;5.54;100.00;100347.13;1388087;89;22381;-81
2023/11/13 08:48:41;;;;;;;23.53;13.30;;;;;;;5.58;100.00;100347.25;1392642;89;21395;-83
2023/11/13 08:51:07;;;;;;;17.27;11.70;;;;;;;5.59;100.00;100346.31;1388269;89;21412;-80
2023/11/13 08:53:42;;;;;;;15.57;10.93;;;;;;;5.61;100.00;100350.95;1387590;89;21367;-80
2023/11/13 08:56:17;;;;;;;15.17;10.70;;;;;;;5.69;100.00;100350.37;1535173;89;21390;-82
2023/11/13 08:58:44;;;;;;;57.40;33.50;;;;;;;5.80;100.00;100354.32;1539980;88;21449;-82
2023/11/13 09:01:11;;;;;;;38.50;20.77;;;;;;;5.96;100.00;100356.64;1388001;89;21568;-82
2023/11/13 09:03:39;;;;;;;30.07;16.80;;;;;;;6.11;100.00;100348.86;1386522;88;22269;-82
2023/11/13 09:06:08;;;;;;;34.37;19.50;;;;;;;6.25;100.00;100342.03;1386137;88;21494;-82
2023/11/13 09:08:35;;;;;;;20.10;13.20;;;;;;;6.41;100.00;100346.06;1385337;88;22484;-80
2023/11/13 09:11:04;;;;;;;23.00;12.37;;;;;;;6.54;100.00;100337.55;1404456;89;22536;-82
2023/11/13 09:13:30;;;;;;;18.30;11.80;;;;;;;6.68;100.00;100353.05;1458848;89;21441;-83
2023/11/13 09:15:56;;;;;;;19.47;12.97;;;;;;;6.73;100.00;100345.63;1462255;88;21626;-81
2023/11/13 09:18:26;;;;;;;18.70;12.57;;;;;;;6.76;100.00;100330.91;1466450;89;21463;-83
2023/11/13 09:20:56;;;;;;;29.98;20.23;;;;;;;6.82;100.00;100331.34;1460012;88;21566;-80
2023/11/13 09:23:24;;;;;;;17.83;10.00;;;;;;;6.81;100.00;100333.63;1461827;89;21411;-81
2023/11/13 09:25:50;;;;;;;19.80;10.77;;;;;;;6.79;100.00;100331.14;1452561;89;21477;-83
2023/11/13 09:28:16;;;;;;;12.80;8.87;;;;;;;6.85;100.00;100332.41;1443921;89;22897;-82
2023/11/13 09:30:42;;;;;;;12.27;8.80;;;;;;;7.08;100.00;100339.27;1463231;88;21976;-80
2023/11/13 09:33:10;;;;;;;15.80;9.23;;;;;;;7.73;100.00;100325.92;1468080;89;21529;-81
2023/11/13 09:35:36;;;;;;;13.50;8.83;;;;;;;7.74;100.00;100332.84;1455102;89;21515;-83
2023/11/13 09:38:04;;;;;;;15.57;9.70;;;;;;;7.79;100.00;100331.98;1468992;89;21499;-82
2023/11/13 09:40:35;;;;;;;14.07;9.43;;;;;;;7.91;100.00;100330.45;1386167;89;21374;-82
2023/11/13 09:43:14;;;;;;;12.60;9.35;;;;;;;8.18;100.00;100330.81;1524970;88;21552;-83
2023/11/13 09:45:55;;;;;;;11.83;8.20;;;;;;;8.32;100.00;100318.57;1545715;88;21435;-83
2023/11/13 09:48:28;;;;;;;13.32;9.53;;;;;;;8.28;100.00;100314.52;1383761;90;21368;-83
2023/11/13 09:50:49;;;;;;;15.67;8.07;;;;;;;8.30;100.00;100306.00;1541919;88;21382;-83
2023/11/13 09:53:19;;;;;;;13.70;9.00;;;;;;;8.32;100.00;100311.98;1387746;89;21426;-81
2023/11/13 09:55:47;;;;;;;15.58;9.15;;;;;;;8.50;100.00;100302.45;1527053;89;21500;-82
2023/11/13 09:58:13;;;;;;;14.03;9.07;;;;;;;8.61;100.00;100308.58;1385892;89;21411;-82
2023/11/13 10:00:40;;;;;;;11.37;7.80;;;;;;;8.69;100.00;100292.88;1387806;89;21426;-83
2023/11/13 10:03:14;;;;;;;11.40;8.23;;;;;;;8.67;100.00;100292.20;1386755;88;21419;-82
2023/11/13 10:05:39;;;;;;;10.13;7.53;;;;;;;8.70;100.00;100295.38;1384776;90;22233;-82
2023/11/13 10:08:06;;;;;;;11.90;8.23;;;;;;;8.70;100.00;100299.83;1386800;89;21360;-83
2023/11/13 10:10:32;;;;;;;13.67;9.17;;;;;;;8.72;100.00;100301.86;1387446;89;21374;-85
2023/11/13 10:13:04;;;;;;;10.80;8.33;;;;;;;8.65;100.00;100305.52;1387363;89;22348;-83
2023/11/13 10:15:30;;;;;;;;;;;;;;;8.70;100.00;100295.88;1547069;89;21398;-80
2023/11/13 10:17:59;;;;;;;12.77;8.93;;;;;;;8.72;100.00;100293.45;1392336;89;20244;-81
2023/11/13 10:20:26;;;;;;;10.03;8.00;;;;;;;8.75;100.00;100288.38;1545781;89;21479;-83
2023/11/13 10:23:06;;;;;;;14.03;7.90;;;;;;;8.74;100.00;100283.56;1376183;90;21442;-82
2023/11/13 10:25:45;;;;;;;12.50;7.43;;;;;;;8.77;100.00;100274.55;1545945;88;21339;-83
2023/11/13 10:28:14;;;;;;;11.90;8.27;;;;;;;8.84;100.00;100274.34;1383092;89;21560;-83
2023/11/13 10:30:58;;;;;;;12.13;8.37;;;;;;;8.92;100.00;100267.02;1384980;88;21501;-81
2023/11/13 10:33:25;;;;;;;13.30;8.07;;;;;;;8.92;100.00;100265.24;1545805;88;21523;-83
2023/11/13 10:35:53;;;;;;;17.30;9.07;;;;;;;8.96;100.00;100262.66;1376313;90;21434;-81
2023/11/13 10:38:21;;;;;;;11.80;9.23;;;;;;;9.00;100.00;100266.66;1386483;88;21419;-82
2023/11/13 10:40:59;;;;;;;15.07;9.70;;;;;;;9.02;100.00;100273.14;1391382;89;21397;-82
2023/11/13 10:43:33;;;;;;;12.73;8.60;;;;;;;8.90;100.00;100273.78;1518582;89;21493;-81
2023/11/13 10:46:00;;;;;;;17.90;10.10;;;;;;;8.75;100.00;100272.06;1377925;90;22271;-83
2023/11/13 10:48:45;;;;;;;11.97;8.13;;;;;;;8.66;100.00;100270.27;1379018;89;21516;-83
2023/11/13 10:51:14;;;;;;;11.47;7.47;;;;;;;8.59;100.00;100271.77;1528373;90;21384;-80
2023/11/13 10:53:44;;;;;;;11.00;8.03;;;;;;;8.57;100.00;100271.92;1376878;89;21611;-84
2023/11/13 10:56:11;;;;;;;12.45;7.87;;;;;;;8.56;100.00;100258.38;1368873;90;22366;-82
2023/11/13 10:58:38;;;;;;;12.40;7.67;;;;;;;8.60;100.00;100241.77;1378125;90;21548;-86
2023/11/13 11:01:08;;;;;;;10.20;7.47;;;;;;;8.68;100.00;100234.00;1378846;90;22227;-87
2023/11/13 11:03:45;;;;;;;11.40;8.03;;;;;;;8.71;100.00;100231.08;1380012;89;21398;-87
2023/11/13 11:06:19;;;;;;;10.80;7.70;;;;;;;8.64;100.00;100237.91;1535472;89;21458;-85
2023/11/13 11:08:45;;;;;;;10.70;7.93;;;;;;;8.62;100.00;100242.47;1377591;89;21390;-80
2023/11/13 11:11:13;;;;;;;13.80;8.73;;;;;;;8.54;100.00;100235.73;1372088;90;21527;-81
2023/11/13 11:13:47;;;;;;;14.77;7.93;;;;;;;8.59;100.00;100237.48;1378184;90;21361;-80
2023/11/13 11:16:28;;;;;;;11.37;7.17;;;;;;;8.66;100.00;100224.55;1522884;89;21390;-78